• Join FlightAware (Why Join?)
  • Login
  • US Flag 
05:39AM EDT


 

Airport Tracker/Info


-or-


 

Live Flight TrackerFlight Track Log ✈ AAY863 ✈ 13-Feb-2014 ✈ KCID - KPIE

Flight Track Log - Related Links

Times and Time Zones

All times are in EST time to prevent confusion due to time zone crossing. See the AAY863 flight status page for this flight to view local times or setup timezone preferences in your user account.

Time Position Orientation Groundspeed Altitude Reporting Facility
EST Latitude Longitude Course Direction KTS MPH feet Rate Location/Type
07:44PM 41.8344 -91.7589 131° Southeast 234 269 3,800  Level Chicago Center
07:45PM 41.7403 -91.7172 162° South 291 335 6,700 2,700 Climbing Chicago Center
07:46PM 41.6561 -91.6756 160° South 316 364 9,500 2,100 Climbing Chicago Center
07:47PM 41.5681 -91.6275 158° South 337 388 11,100 1,620 Climbing Chicago Center
07:48PM 41.4836 -91.5211 137° Southeast 404 465 12,900 2,040 Climbing Chicago Center
07:49PM 40.9606 -90.9575 131° Southeast  Level FlightAware Approximate
07:49PM 41.3914 -91.4186 140° Southeast 426 490 15,400  Level Chicago Center
07:50PM 41.2911 -91.3050 140° Southeast 450 518 17,600 2,280 Climbing Chicago Center
07:51PM 41.1903 -91.1917 140° Southeast 471 542 20,100 2,520 Climbing Chicago Center
07:52PM 41.0672 -91.0547 140° Southeast 482 555 22,800 1,980 Climbing Chicago Center
07:53PM 40.9619 -90.9375 140° Southeast 492 566 24,200 1,680 Climbing Chicago Center
07:54PM 40.8539 -90.8175 140° Southeast 507 583 26,300 1,560 Climbing Chicago Center
07:55PM 40.7469 -90.6992 140° Southeast 505 581 27,500 1,140 Climbing Chicago Center
07:57PM 40.6364 -90.5781 140° Southeast 516 594 28,700 1,320 Climbing Chicago Center
07:58PM 40.5244 -90.4550 140° Southeast 525 604 30,300 1,380 Climbing Chicago Center
07:59PM 40.3953 -90.3142 140° Southeast 514 592 31,600 1,200 Climbing Chicago Center
08:00PM 40.2864 -90.1961 140° Southeast 512 589 32,900 660 Climbing Chicago Center
08:01PM 40.1772 -90.0786 141° Southeast 512 589 33,000  Climbing Chicago Center
08:02PM 40.0683 -89.9611 140° Southeast 512 589 33,000  Level Chicago Center
08:03PM 39.9581 -89.8450 141° Southeast 511 588 33,000  Level Chicago Center
08:04PM 39.8481 -89.7264 140° Southeast 513 590 33,000  Level Chicago Center
08:05PM 39.7150 -89.5836 140° Southeast 517 595 33,000  Level Chicago Center
08:06PM 39.6031 -89.4667 141° Southeast 518 596 33,000  Level Chicago Center
08:07PM 39.4919 -89.3489 141° Southeast 517 595 33,000  Level Chicago Center
08:08PM 39.3814 -89.2322 141° Southeast 514 592 33,000  Level Chicago Center
08:09PM 39.2706 -89.1222 142° Southeast 506 582 33,000  Level Chicago Center
08:10PM 39.1600 -89.0050 141° Southeast 512 589 33,000  Level Chicago Center
08:11PM 39.0269 -88.8633 140° Southeast 519 597 33,000  Level Chicago Center
08:12PM 38.9158 -88.7494 141° Southeast 515 593 33,000  Level Chicago Center
08:13PM 38.7742 -88.6106 143° Southeast 511 588 33,000  Level Kansas City Center
08:14PM 38.6622 -88.4967 142° Southeast 513 590 33,000  Level Kansas City Center
08:15PM 38.5281 -88.3600 141° Southeast 512 589 33,000  Level Kansas City Center
08:16PM 38.4156 -88.2472 142° Southeast 512 589 33,000  Level Kansas City Center
08:17PM 38.3044 -88.1342 141° Southeast 512 589 33,000  Level Kansas City Center
08:19PM 38.1906 -88.0231 143° Southeast 517 595 33,000  Level Indianapolis Center
08:20PM 38.0769 -87.9100 142° Southeast 518 596 33,000  Level Indianapolis Center
08:21PM 37.9633 -87.7978 142° Southeast 519 597 33,000  Level Indianapolis Center
08:22PM 37.8422 -87.7086 150° Southeast 507 583 33,000  Level Indianapolis Center
08:23PM 37.6900 -87.6153 154° Southeast 505 581 33,000  Level Indianapolis Center
08:24PM 37.5619 -87.5381 154° Southeast 506 582 33,000  Level Indianapolis Center
08:25PM 37.4336 -87.4594 154° Southeast 507 583 33,000  Level Indianapolis Center
08:26PM 37.3064 -87.3814 154° Southeast 505 581 33,000  Level Indianapolis Center
08:27PM 37.1792 -87.3058 155° Southeast 503 579 33,000  Level Indianapolis Center
08:28PM 37.0728 -87.2472 156° South 500 575 33,000  Level Memphis Center
08:29PM 36.9428 -87.1806 158° South 498 573 33,000  Level Memphis Center
08:30PM 36.8147 -87.1111 157° South 498 573 33,000  Level Memphis Center
08:31PM 36.6861 -87.0431 157° South 497 572 33,000  Level Memphis Center
08:32PM 36.5561 -86.9744 157° South 501 577 33,000  Level Memphis Center
08:33PM 36.4283 -86.9072 157° South 497 572 33,000  Level Memphis Center
08:34PM 36.2897 -86.8350 157° South 496 571 33,000  Level Memphis Center
08:35PM 36.1611 -86.7681 157° South 491 565 33,000  Level Memphis Center
08:36PM 36.0339 -86.7017 157° South 492 566 33,000  Level Memphis Center
08:37PM 35.9056 -86.6358 157° South 494 568 33,000  Level Memphis Center
08:38PM 35.7783 -86.5683 157° South 493 567 33,000  Level Memphis Center
08:39PM 35.6500 -86.5025 157° South 494 568 33,000  Level Memphis Center
08:40PM 35.5000 -86.4258 157° South 496 571 33,000  Level Memphis Center
08:41PM 35.3719 -86.3600 157° South 496 571 33,000  Level Memphis Center
08:41PM 35.3069 -86.3292 159° South 494 568 33,000  Level Atlanta Center
08:42PM 35.1706 -86.2544 156° South 488 562 33,000  Level Atlanta Center
08:43PM 35.0422 -86.1900 158° South 488 562 33,000  Level Atlanta Center
08:44PM 34.9161 -86.1311 159° South 494 568 33,000  Level Atlanta Center
08:45PM 34.7897 -86.0622 156° South 494 568 33,000  Level Atlanta Center
08:46PM 34.6636 -85.9958 157° South 494 568 33,000  Level Atlanta Center
08:47PM 34.5331 -85.9325 158° South 494 568 33,000  Level Atlanta Center
08:48PM 34.4006 -85.8664 158° South 500 575 33,000  Level Atlanta Center
08:49PM 34.2761 -85.8086 159° South 499 574 33,000  Level Atlanta Center
08:50PM 34.1478 -85.7456 158° South 486 559 33,000  Level Atlanta Center
08:51PM 34.0233 -85.6831 157° South 492 566 33,000  Level Atlanta Center
08:52PM 33.8928 -85.6203 158° South 492 566 33,000  Level Atlanta Center
08:53PM 33.7661 -85.5581 158° South 492 566 33,000  Level Atlanta Center
08:54PM 33.6353 -85.4958 158° South 492 566 33,000  Level Atlanta Center
08:55PM 33.5067 -85.4314 157° South 492 566 33,000  Level Atlanta Center
08:56PM 33.3822 -85.3722 158° South 487 560 33,000  Level Atlanta Center
08:57PM 33.2514 -85.3081 158° South 494 568 33,000  Level Atlanta Center
08:58PM 33.1225 -85.2467 158° South 499 574 33,000  Level Atlanta Center
08:59PM 33.0125 -85.1933 158° South 488 562 33,000  Level Atlanta Center
09:00PM 32.8686 -85.1517 166° South 488 562 33,000  Level Atlanta Center
09:01PM 32.7378 -85.0958 160° South 478 550 33,000  Level Atlanta Center
09:02PM 32.6169 -85.0572 165° South 471 542 33,000  Level Atlanta Center
09:03PM 32.4858 -85.0114 164° South 470 541 33,000  Level Atlanta Center
09:04PM 32.3567 -84.9708 165° South 483 556 33,000  Level Atlanta Center
09:07PM 32.0781 -84.8761 164° South 470 541 33,000  Level Jacksonville Center
09:08PM 31.9533 -84.8342 164° South 470 541 33,000  Level Jacksonville Center
09:09PM 31.8431 -84.8000 165° South 470 541 33,000  Level Jacksonville Center
09:10PM 31.7144 -84.7561 164° South 470 541 33,000  Level Jacksonville Center
09:11PM 31.5897 -84.7144 164° South 476 548 33,000  Level Jacksonville Center
09:12PM 31.4650 -84.6731 164° South 470 541 33,000  Level Jacksonville Center
09:13PM 31.3383 -84.6317 164° South 470 541 33,000  Level Jacksonville Center
09:14PM 31.2114 -84.5881 164° South 470 541 33,000  Level Jacksonville Center
09:15PM 31.0889 -84.5350 160° South 475 547 33,000  Level Jacksonville Center
09:16PM 30.9644 -84.4722 157° South 482 555 33,000  Level Jacksonville Center
09:17PM 30.8400 -84.4097 157° South 488 562 33,000  Level Jacksonville Center
09:18PM 30.7197 -84.3472 156° South 488 562 33,000  Level Jacksonville Center
09:19PM 30.5950 -84.2850 157° South 488 562 33,000  Level Jacksonville Center
09:20PM 30.4622 -84.2181 157° South 482 555 33,000  Level Jacksonville Center
09:21PM 30.3583 -84.1636 156° South 467 537 33,000  Level Jacksonville Center
09:22PM 30.2317 -84.1019 157° South 472 543 33,000  Level Jacksonville Center
09:23PM 30.1111 -84.0428 157° South 472 543 33,000 -540 Level Jacksonville Center
09:24PM 29.9883 -83.9789 156° South 472 543 32,000 -900 Descending Jacksonville Center
09:25PM 29.8658 -83.9200 157° South 472 543 31,200 -540 Descending Jacksonville Center
09:26PM 29.7306 -83.8397 153° Southeast 486 559 31,000 -480 Descending Jacksonville Center
09:27PM 29.6142 -83.7644 151° Southeast 486 559 30,300 -960 Descending Jacksonville Center
09:28PM 29.4958 -83.6894 151° Southeast 486 559 29,100 -1,260 Descending Jacksonville Center
09:29PM 29.3753 -83.6100 150° Southeast 492 566 27,800 -1,080 Descending Jacksonville Center
09:30PM 29.2544 -83.5328 151° Southeast 492 566 27,000 -420 Descending Jacksonville Center
09:31PM 29.1358 -83.4561 151° Southeast 492 566 27,000 -480 Level Jacksonville Center
09:32PM 29.0192 -83.3864 152° Southeast 492 566 26,100 -1,620 Descending Jacksonville Center
09:33PM 28.9025 -83.3122 151° Southeast 486 559 23,800 -2,400 Descending Jacksonville Center
09:34PM 28.7922 -83.2408 150° Southeast 472 543 21,400 -2,340 Descending Jacksonville Center
09:36PM 28.5500 -83.0833 150° Southeast 420 483 16,200 -2,400 Descending Tampa TRACON
09:37PM 28.4333 -83.0167 153° Southeast 411 473 13,400 -2,280 Descending Tampa TRACON
09:38PM 28.3500 -82.9500 145° Southeast 387 445 11,500 -1,500 Descending Tampa TRACON
09:39PM 28.2667 -82.9167 161° South 348 400 10,600 -1,080 Descending Tampa TRACON
09:40PM 28.2000 -82.8667 147° Southeast 308 354 9,500 -1,440 Descending Tampa TRACON
09:41PM 28.1000 -82.8000 150° Southeast 299 344 7,700 -1,800 Descending Tampa TRACON
09:42PM 28.0333 -82.7667 156° South 283 326 5,800 -1,920 Descending Tampa TRACON
09:43PM 27.9667 -82.7667 180° South 274 315 3,900 -1,620 Descending Tampa TRACON
09:44PM 27.9000 -82.7500 168° South 234 269 2,600 -960 Descending Tampa TRACON
09:45PM 27.8333 -82.7333 168° South 188 216 2,000 -720 Descending Tampa TRACON
09:46PM 27.8500 -82.6833 69° East 154 177 1,200 -840 Descending Tampa TRACON
09:47PM 27.8833 -82.6833 360° North 125 144 400 -840 Descending Tampa TRACON